sensor_id;sensor_type;location;lat;lon;timestamp;P1;durP1;ratioP1;P2;durP2;ratioP2
3415;SDS011;1721;51.238;9.562;2024-02-15T00:02:15;6.22;;;2.50;;
3415;SDS011;1721;51.238;9.562;2024-02-15T00:04:41;6.65;;;2.22;;
3415;SDS011;1721;51.238;9.562;2024-02-15T00:07:07;4.80;;;2.05;;
3415;SDS011;1721;51.238;9.562;2024-02-15T00:09:33;4.73;;;2.03;;
3415;SDS011;1721;51.238;9.562;2024-02-15T00:11:59;7.78;;;2.65;;
3415;SDS011;1721;51.238;9.562;2024-02-15T00:14:25;4.07;;;2.10;;
3415;SDS011;1721;51.238;9.562;2024-02-15T00:16:52;11.85;;;2.50;;
3415;SDS011;1721;51.238;9.562;2024-02-15T00:19:18;4.87;;;1.97;;
3415;SDS011;1721;51.238;9.562;2024-02-15T00:21:44;5.10;;;2.60;;
3415;SDS011;1721;51.238;9.562;2024-02-15T00:24:09;4.80;;;2.50;;
3415;SDS011;1721;51.238;9.562;2024-02-15T00:26:35;6.35;;;2.92;;
3415;SDS011;1721;51.238;9.562;2024-02-15T00:29:01;5.27;;;2.47;;
3415;SDS011;1721;51.238;9.562;2024-02-15T00:31:27;4.60;;;2.23;;
3415;SDS011;1721;51.238;9.562;2024-02-15T00:33:52;7.00;;;3.03;;
3415;SDS011;1721;51.238;9.562;2024-02-15T00:36:19;5.93;;;2.40;;
3415;SDS011;1721;51.238;9.562;2024-02-15T00:38:44;4.23;;;2.00;;
3415;SDS011;1721;51.238;9.562;2024-02-15T00:41:10;4.53;;;1.90;;
3415;SDS011;1721;51.238;9.562;2024-02-15T00:43:35;4.13;;;2.10;;
3415;SDS011;1721;51.238;9.562;2024-02-15T00:46:01;8.07;;;2.40;;
3415;SDS011;1721;51.238;9.562;2024-02-15T00:48:27;4.10;;;1.63;;
3415;SDS011;1721;51.238;9.562;2024-02-15T00:50:54;5.22;;;2.38;;
3415;SDS011;1721;51.238;9.562;2024-02-15T00:53:21;5.95;;;2.58;;
3415;SDS011;1721;51.238;9.562;2024-02-15T00:55:46;7.73;;;2.73;;
3415;SDS011;1721;51.238;9.562;2024-02-15T00:58:12;5.70;;;2.00;;
3415;SDS011;1721;51.238;9.562;2024-02-15T01:00:37;4.67;;;2.07;;
3415;SDS011;1721;51.238;9.562;2024-02-15T01:03:03;5.30;;;2.10;;
3415;SDS011;1721;51.238;9.562;2024-02-15T01:05:29;4.93;;;1.93;;
3415;SDS011;1721;51.238;9.562;2024-02-15T01:07:55;6.97;;;2.60;;
3415;SDS011;1721;51.238;9.562;2024-02-15T01:10:21;6.40;;;2.35;;
3415;SDS011;1721;51.238;9.562;2024-02-15T01:12:48;3.80;;;1.75;;
3415;SDS011;1721;51.238;9.562;2024-02-15T01:15:14;5.30;;;2.40;;
3415;SDS011;1721;51.238;9.562;2024-02-15T01:17:43;5.43;;;2.72;;
3415;SDS011;1721;51.238;9.562;2024-02-15T01:20:09;6.30;;;2.25;;
3415;SDS011;1721;51.238;9.562;2024-02-15T01:22:35;5.00;;;2.13;;
3415;SDS011;1721;51.238;9.562;2024-02-15T01:25:01;5.30;;;2.40;;
3415;SDS011;1721;51.238;9.562;2024-02-15T01:27:27;4.95;;;2.10;;
3415;SDS011;1721;51.238;9.562;2024-02-15T01:29:56;4.90;;;1.58;;
3415;SDS011;1721;51.238;9.562;2024-02-15T01:32:22;5.30;;;2.23;;
3415;SDS011;1721;51.238;9.562;2024-02-15T01:34:47;4.90;;;2.10;;
3415;SDS011;1721;51.238;9.562;2024-02-15T01:37:16;4.97;;;1.85;;
3415;SDS011;1721;51.238;9.562;2024-02-15T01:39:41;3.83;;;1.90;;
3415;SDS011;1721;51.238;9.562;2024-02-15T01:42:07;5.97;;;2.40;;
3415;SDS011;1721;51.238;9.562;2024-02-15T01:44:33;4.63;;;1.67;;
3415;SDS011;1721;51.238;9.562;2024-02-15T01:47:04;6.03;;;2.55;;
3415;SDS011;1721;51.238;9.562;2024-02-15T01:49:31;5.68;;;2.20;;
3415;SDS011;1721;51.238;9.562;2024-02-15T01:51:58;4.50;;;1.95;;
3415;SDS011;1721;51.238;9.562;2024-02-15T01:54:25;6.32;;;2.20;;
3415;SDS011;1721;51.238;9.562;2024-02-15T01:56:52;5.38;;;2.30;;
3415;SDS011;1721;51.238;9.562;2024-02-15T01:59:19;4.50;;;2.30;;
3415;SDS011;1721;51.238;9.562;2024-02-15T02:01:47;5.30;;;1.90;;
3415;SDS011;1721;51.238;9.562;2024-02-15T02:04:13;3.07;;;1.47;;
3415;SDS011;1721;51.238;9.562;2024-02-15T02:06:39;6.43;;;2.10;;
3415;SDS011;1721;51.238;9.562;2024-02-15T02:09:05;3.72;;;1.75;;
3415;SDS011;1721;51.238;9.562;2024-02-15T02:11:37;5.43;;;1.83;;
3415;SDS011;1721;51.238;9.562;2024-02-15T02:14:03;5.47;;;2.07;;
3415;SDS011;1721;51.238;9.562;2024-02-15T02:16:29;4.80;;;2.20;;
3415;SDS011;1721;51.238;9.562;2024-02-15T02:19:00;4.35;;;2.25;;
3415;SDS011;1721;51.238;9.562;2024-02-15T02:21:27;4.43;;;2.22;;
3415;SDS011;1721;51.238;9.562;2024-02-15T02:23:57;3.50;;;1.60;;
3415;SDS011;1721;51.238;9.562;2024-02-15T02:26:23;4.18;;;2.10;;
3415;SDS011;1721;51.238;9.562;2024-02-15T02:28:49;5.68;;;2.22;;
3415;SDS011;1721;51.238;9.562;2024-02-15T02:31:18;4.65;;;2.25;;
3415;SDS011;1721;51.238;9.562;2024-02-15T02:33:47;5.80;;;2.20;;
3415;SDS011;1721;51.238;9.562;2024-02-15T02:36:17;7.28;;;2.30;;
3415;SDS011;1721;51.238;9.562;2024-02-15T02:38:44;3.38;;;1.52;;
3415;SDS011;1721;51.238;9.562;2024-02-15T02:41:13;7.45;;;2.60;;
3415;SDS011;1721;51.238;9.562;2024-02-15T02:43:41;5.82;;;1.90;;
3415;SDS011;1721;51.238;9.562;2024-02-15T02:46:10;5.13;;;2.42;;
3415;SDS011;1721;51.238;9.562;2024-02-15T02:48:37;5.88;;;2.30;;
3415;SDS011;1721;51.238;9.562;2024-02-15T02:51:06;7.63;;;2.70;;
3415;SDS011;1721;51.238;9.562;2024-02-15T02:53:32;5.10;;;2.10;;
3415;SDS011;1721;51.238;9.562;2024-02-15T02:55:58;8.63;;;2.30;;
3415;SDS011;1721;51.238;9.562;2024-02-15T02:58:24;7.93;;;3.20;;
3415;SDS011;1721;51.238;9.562;2024-02-15T03:00:50;6.67;;;2.80;;
3415;SDS011;1721;51.238;9.562;2024-02-15T03:03:16;7.35;;;3.00;;
3415;SDS011;1721;51.238;9.562;2024-02-15T03:05:43;6.85;;;2.90;;
3415;SDS011;1721;51.238;9.562;2024-02-15T03:08:09;6.33;;;2.60;;
3415;SDS011;1721;51.238;9.562;2024-02-15T03:10:38;4.35;;;2.40;;
3415;SDS011;1721;51.238;9.562;2024-02-15T03:13:04;5.93;;;2.60;;
3415;SDS011;1721;51.238;9.562;2024-02-15T03:15:30;6.97;;;2.58;;
3415;SDS011;1721;51.238;9.562;2024-02-15T03:17:58;4.38;;;2.25;;
3415;SDS011;1721;51.238;9.562;2024-02-15T03:20:23;5.97;;;2.23;;
3415;SDS011;1721;51.238;9.562;2024-02-15T03:22:53;5.77;;;2.37;;
3415;SDS011;1721;51.238;9.562;2024-02-15T03:25:19;7.85;;;3.50;;
3415;SDS011;1721;51.238;9.562;2024-02-15T03:27:48;6.32;;;2.65;;
3415;SDS011;1721;51.238;9.562;2024-02-15T03:30:16;8.27;;;2.80;;
3415;SDS011;1721;51.238;9.562;2024-02-15T03:32:42;9.07;;;2.63;;
3415;SDS011;1721;51.238;9.562;2024-02-15T03:35:08;7.80;;;2.40;;
3415;SDS011;1721;51.238;9.562;2024-02-15T03:37:33;5.53;;;2.33;;
3415;SDS011;1721;51.238;9.562;2024-02-15T03:40:02;5.43;;;2.40;;
3415;SDS011;1721;51.238;9.562;2024-02-15T03:42:29;7.70;;;2.70;;
3415;SDS011;1721;51.238;9.562;2024-02-15T03:44:55;7.63;;;2.40;;
3415;SDS011;1721;51.238;9.562;2024-02-15T03:47:21;6.17;;;2.60;;
3415;SDS011;1721;51.238;9.562;2024-02-15T03:49:46;5.80;;;2.43;;
3415;SDS011;1721;51.238;9.562;2024-02-15T03:52:12;6.40;;;2.73;;
3415;SDS011;1721;51.238;9.562;2024-02-15T03:54:38;8.33;;;3.30;;
3415;SDS011;1721;51.238;9.562;2024-02-15T03:57:03;9.60;;;3.20;;
3415;SDS011;1721;51.238;9.562;2024-02-15T03:59:31;15.27;;;3.70;;
3415;SDS011;1721;51.238;9.562;2024-02-15T04:01:57;5.82;;;2.45;;
3415;SDS011;1721;51.238;9.562;2024-02-15T04:04:23;6.23;;;3.00;;
3415;SDS011;1721;51.238;9.562;2024-02-15T04:06:49;10.80;;;2.90;;
3415;SDS011;1721;51.238;9.562;2024-02-15T04:09:15;7.93;;;3.15;;
3415;SDS011;1721;51.238;9.562;2024-02-15T04:11:42;8.20;;;3.05;;
3415;SDS011;1721;51.238;9.562;2024-02-15T04:14:08;7.15;;;2.97;;
3415;SDS011;1721;51.238;9.562;2024-02-15T04:16:36;8.20;;;3.17;;
3415;SDS011;1721;51.238;9.562;2024-02-15T04:19:02;7.10;;;3.65;;
3415;SDS011;1721;51.238;9.562;2024-02-15T04:21:28;8.13;;;3.53;;
3415;SDS011;1721;51.238;9.562;2024-02-15T04:23:53;9.97;;;3.90;;
3415;SDS011;1721;51.238;9.562;2024-02-15T04:26:19;6.07;;;2.83;;
3415;SDS011;1721;51.238;9.562;2024-02-15T04:28:45;4.63;;;2.50;;
3415;SDS011;1721;51.238;9.562;2024-02-15T04:31:18;9.00;;;3.50;;
3415;SDS011;1721;51.238;9.562;2024-02-15T04:33:55;9.38;;;3.30;;
3415;SDS011;1721;51.238;9.562;2024-02-15T04:36:23;11.40;;;3.50;;
3415;SDS011;1721;51.238;9.562;2024-02-15T04:38:50;14.40;;;3.80;;
3415;SDS011;1721;51.238;9.562;2024-02-15T04:41:18;10.45;;;3.35;;
3415;SDS011;1721;51.238;9.562;2024-02-15T04:43:46;6.88;;;2.72;;
3415;SDS011;1721;51.238;9.562;2024-02-15T04:46:12;8.52;;;4.25;;
3415;SDS011;1721;51.238;9.562;2024-02-15T04:48:39;10.20;;;3.70;;
3415;SDS011;1721;51.238;9.562;2024-02-15T04:51:06;9.88;;;2.95;;
3415;SDS011;1721;51.238;9.562;2024-02-15T04:53:32;7.70;;;3.27;;
3415;SDS011;1721;51.238;9.562;2024-02-15T04:55:58;8.40;;;3.37;;
3415;SDS011;1721;51.238;9.562;2024-02-15T04:58:26;8.27;;;3.35;;
3415;SDS011;1721;51.238;9.562;2024-02-15T05:00:53;8.82;;;3.30;;
3415;SDS011;1721;51.238;9.562;2024-02-15T05:03:23;7.43;;;3.25;;
3415;SDS011;1721;51.238;9.562;2024-02-15T05:05:49;14.53;;;3.47;;
3415;SDS011;1721;51.238;9.562;2024-02-15T05:08:15;8.10;;;2.53;;
3415;SDS011;1721;51.238;9.562;2024-02-15T05:10:40;7.83;;;3.60;;
3415;SDS011;1721;51.238;9.562;2024-02-15T05:13:06;9.17;;;3.30;;
3415;SDS011;1721;51.238;9.562;2024-02-15T05:15:33;5.25;;;2.80;;
3415;SDS011;1721;51.238;9.562;2024-02-15T05:17:58;7.60;;;3.63;;
3415;SDS011;1721;51.238;9.562;2024-02-15T05:20:26;6.93;;;3.70;;
3415;SDS011;1721;51.238;9.562;2024-02-15T05:22:52;11.30;;;3.40;;
3415;SDS011;1721;51.238;9.562;2024-02-15T05:25:19;9.23;;;3.50;;
3415;SDS011;1721;51.238;9.562;2024-02-15T05:27:52;8.35;;;3.35;;
3415;SDS011;1721;51.238;9.562;2024-02-15T05:30:21;13.63;;;4.80;;
3415;SDS011;1721;51.238;9.562;2024-02-15T05:32:47;11.38;;;3.35;;
3415;SDS011;1721;51.238;9.562;2024-02-15T05:35:14;7.95;;;3.63;;
3415;SDS011;1721;51.238;9.562;2024-02-15T05:37:40;11.43;;;3.80;;
3415;SDS011;1721;51.238;9.562;2024-02-15T05:40:06;8.63;;;3.20;;
3415;SDS011;1721;51.238;9.562;2024-02-15T05:42:32;7.72;;;3.45;;
3415;SDS011;1721;51.238;9.562;2024-02-15T05:45:01;8.60;;;3.00;;
3415;SDS011;1721;51.238;9.562;2024-02-15T05:47:49;8.52;;;3.75;;
3415;SDS011;1721;51.238;9.562;2024-02-15T05:50:15;11.93;;;4.60;;
3415;SDS011;1721;51.238;9.562;2024-02-15T05:52:41;13.80;;;4.13;;
3415;SDS011;1721;51.238;9.562;2024-02-15T05:55:07;11.20;;;4.53;;
3415;SDS011;1721;51.238;9.562;2024-02-15T05:57:33;11.05;;;3.22;;
3415;SDS011;1721;51.238;9.562;2024-02-15T05:59:58;11.63;;;3.73;;
3415;SDS011;1721;51.238;9.562;2024-02-15T06:02:28;12.88;;;3.90;;
3415;SDS011;1721;51.238;9.562;2024-02-15T06:04:55;12.85;;;4.15;;
3415;SDS011;1721;51.238;9.562;2024-02-15T06:07:26;13.48;;;5.13;;
3415;SDS011;1721;51.238;9.562;2024-02-15T06:09:51;8.60;;;3.50;;
3415;SDS011;1721;51.238;9.562;2024-02-15T06:12:17;9.70;;;3.70;;
3415;SDS011;1721;51.238;9.562;2024-02-15T06:14:42;13.77;;;4.20;;
3415;SDS011;1721;51.238;9.562;2024-02-15T06:17:08;9.23;;;3.57;;
3415;SDS011;1721;51.238;9.562;2024-02-15T06:19:35;33.05;;;12.65;;
3415;SDS011;1721;51.238;9.562;2024-02-15T06:22:01;9.87;;;4.93;;
3415;SDS011;1721;51.238;9.562;2024-02-15T06:24:27;8.43;;;4.23;;
3415;SDS011;1721;51.238;9.562;2024-02-15T06:26:53;13.27;;;4.53;;
3415;SDS011;1721;51.238;9.562;2024-02-15T06:29:24;13.10;;;4.28;;
3415;SDS011;1721;51.238;9.562;2024-02-15T06:32:09;11.70;;;4.22;;
3415;SDS011;1721;51.238;9.562;2024-02-15T06:34:53;12.88;;;6.25;;
3415;SDS011;1721;51.238;9.562;2024-02-15T06:37:38;10.50;;;4.47;;
3415;SDS011;1721;51.238;9.562;2024-02-15T06:40:23;12.82;;;4.70;;
3415;SDS011;1721;51.238;9.562;2024-02-15T06:42:49;9.30;;;3.13;;
3415;SDS011;1721;51.238;9.562;2024-02-15T06:45:15;9.03;;;4.73;;
3415;SDS011;1721;51.238;9.562;2024-02-15T06:47:44;12.85;;;5.45;;
3415;SDS011;1721;51.238;9.562;2024-02-15T06:50:11;11.63;;;4.75;;
3415;SDS011;1721;51.238;9.562;2024-02-15T06:52:38;14.23;;;5.13;;
3415;SDS011;1721;51.238;9.562;2024-02-15T06:55:06;12.68;;;4.47;;
3415;SDS011;1721;51.238;9.562;2024-02-15T06:57:35;9.90;;;4.88;;
3415;SDS011;1721;51.238;9.562;2024-02-15T07:00:04;11.38;;;4.70;;
3415;SDS011;1721;51.238;9.562;2024-02-15T07:02:34;19.33;;;5.25;;
3415;SDS011;1721;51.238;9.562;2024-02-15T07:05:00;12.73;;;4.80;;
3415;SDS011;1721;51.238;9.562;2024-02-15T07:07:27;11.30;;;4.90;;
3415;SDS011;1721;51.238;9.562;2024-02-15T07:09:53;19.63;;;4.07;;
3415;SDS011;1721;51.238;9.562;2024-02-15T07:12:19;9.97;;;3.87;;
3415;SDS011;1721;51.238;9.562;2024-02-15T07:14:46;10.65;;;4.40;;
3415;SDS011;1721;51.238;9.562;2024-02-15T07:17:12;15.45;;;5.13;;
3415;SDS011;1721;51.238;9.562;2024-02-15T07:19:41;10.63;;;5.40;;
3415;SDS011;1721;51.238;9.562;2024-02-15T07:22:09;11.32;;;4.97;;
3415;SDS011;1721;51.238;9.562;2024-02-15T07:24:35;10.50;;;4.25;;
3415;SDS011;1721;51.238;9.562;2024-02-15T07:27:03;11.95;;;4.47;;
3415;SDS011;1721;51.238;9.562;2024-02-15T07:29:29;11.98;;;4.47;;
3415;SDS011;1721;51.238;9.562;2024-02-15T07:31:56;9.38;;;4.50;;
3415;SDS011;1721;51.238;9.562;2024-02-15T07:34:23;10.45;;;4.40;;
3415;SDS011;1721;51.238;9.562;2024-02-15T07:36:50;11.43;;;4.63;;
3415;SDS011;1721;51.238;9.562;2024-02-15T07:39:16;15.20;;;4.80;;
3415;SDS011;1721;51.238;9.562;2024-02-15T07:41:48;19.05;;;5.10;;
3415;SDS011;1721;51.238;9.562;2024-02-15T07:44:15;8.65;;;5.18;;
3415;SDS011;1721;51.238;9.562;2024-02-15T07:46:42;8.90;;;4.40;;
3415;SDS011;1721;51.238;9.562;2024-02-15T07:49:08;10.60;;;4.60;;
3415;SDS011;1721;51.238;9.562;2024-02-15T07:51:34;9.47;;;4.33;;
3415;SDS011;1721;51.238;9.562;2024-02-15T07:53:59;8.53;;;4.00;;
3415;SDS011;1721;51.238;9.562;2024-02-15T07:56:26;8.70;;;4.10;;
3415;SDS011;1721;51.238;9.562;2024-02-15T07:58:52;13.90;;;3.80;;
3415;SDS011;1721;51.238;9.562;2024-02-15T08:01:18;8.60;;;3.47;;
3415;SDS011;1721;51.238;9.562;2024-02-15T08:03:46;7.63;;;3.70;;
3415;SDS011;1721;51.238;9.562;2024-02-15T08:06:13;8.52;;;3.00;;
3415;SDS011;1721;51.238;9.562;2024-02-15T08:08:41;22.90;;;5.22;;
3415;SDS011;1721;51.238;9.562;2024-02-15T08:11:08;7.88;;;3.45;;
3415;SDS011;1721;51.238;9.562;2024-02-15T08:13:46;15.75;;;3.63;;
3415;SDS011;1721;51.238;9.562;2024-02-15T08:16:15;7.40;;;3.25;;
3415;SDS011;1721;51.238;9.562;2024-02-15T08:18:41;10.63;;;3.55;;
3415;SDS011;1721;51.238;9.562;2024-02-15T08:21:13;7.78;;;3.00;;
3415;SDS011;1721;51.238;9.562;2024-02-15T08:23:39;8.68;;;3.25;;
3415;SDS011;1721;51.238;9.562;2024-02-15T08:26:06;9.93;;;3.40;;
3415;SDS011;1721;51.238;9.562;2024-02-15T08:28:32;7.70;;;3.30;;
3415;SDS011;1721;51.238;9.562;2024-02-15T08:30:57;5.70;;;2.73;;
3415;SDS011;1721;51.238;9.562;2024-02-15T08:33:23;5.23;;;2.63;;
3415;SDS011;1721;51.238;9.562;2024-02-15T08:35:50;7.07;;;2.50;;
3415;SDS011;1721;51.238;9.562;2024-02-15T08:38:15;9.70;;;3.00;;
3415;SDS011;1721;51.238;9.562;2024-02-15T08:40:42;8.00;;;2.17;;
3415;SDS011;1721;51.238;9.562;2024-02-15T08:43:10;6.20;;;2.47;;
3415;SDS011;1721;51.238;9.562;2024-02-15T08:45:36;9.35;;;2.83;;
3415;SDS011;1721;51.238;9.562;2024-02-15T08:48:02;11.13;;;3.10;;
3415;SDS011;1721;51.238;9.562;2024-02-15T08:50:29;7.82;;;3.13;;
3415;SDS011;1721;51.238;9.562;2024-02-15T08:52:55;7.27;;;2.80;;
3415;SDS011;1721;51.238;9.562;2024-02-15T08:55:21;6.18;;;2.90;;
3415;SDS011;1721;51.238;9.562;2024-02-15T08:57:51;6.22;;;2.92;;
3415;SDS011;1721;51.238;9.562;2024-02-15T09:00:18;6.82;;;3.40;;
3415;SDS011;1721;51.238;9.562;2024-02-15T09:02:45;12.02;;;3.30;;
3415;SDS011;1721;51.238;9.562;2024-02-15T09:05:11;7.85;;;2.70;;
3415;SDS011;1721;51.238;9.562;2024-02-15T09:07:41;12.85;;;4.10;;
3415;SDS011;1721;51.238;9.562;2024-02-15T09:10:08;5.47;;;2.40;;
3415;SDS011;1721;51.238;9.562;2024-02-15T09:12:35;7.47;;;3.13;;
3415;SDS011;1721;51.238;9.562;2024-02-15T09:15:05;10.65;;;3.15;;
3415;SDS011;1721;51.238;9.562;2024-02-15T09:17:32;7.82;;;3.20;;
3415;SDS011;1721;51.238;9.562;2024-02-15T09:20:04;8.77;;;2.83;;
3415;SDS011;1721;51.238;9.562;2024-02-15T09:22:42;7.28;;;2.80;;
3415;SDS011;1721;51.238;9.562;2024-02-15T09:25:09;7.78;;;3.20;;
3415;SDS011;1721;51.238;9.562;2024-02-15T09:27:38;6.45;;;3.10;;
3415;SDS011;1721;51.238;9.562;2024-02-15T09:30:04;10.20;;;4.30;;
3415;SDS011;1721;51.238;9.562;2024-02-15T09:32:38;7.45;;;3.50;;
3415;SDS011;1721;51.238;9.562;2024-02-15T09:35:04;6.20;;;3.00;;
3415;SDS011;1721;51.238;9.562;2024-02-15T09:37:34;7.10;;;2.83;;
3415;SDS011;1721;51.238;9.562;2024-02-15T09:40:00;6.13;;;2.88;;
3415;SDS011;1721;51.238;9.562;2024-02-15T09:42:31;7.30;;;3.13;;
3415;SDS011;1721;51.238;9.562;2024-02-15T09:44:59;6.47;;;2.65;;
3415;SDS011;1721;51.238;9.562;2024-02-15T09:47:26;7.45;;;3.70;;
3415;SDS011;1721;51.238;9.562;2024-02-15T09:50:09;8.07;;;3.00;;
3415;SDS011;1721;51.238;9.562;2024-02-15T09:52:38;12.82;;;3.80;;
3415;SDS011;1721;51.238;9.562;2024-02-15T09:55:05;9.18;;;3.67;;
3415;SDS011;1721;51.238;9.562;2024-02-15T09:57:35;9.25;;;3.40;;
3415;SDS011;1721;51.238;9.562;2024-02-15T10:00:01;7.17;;;3.10;;
3415;SDS011;1721;51.238;9.562;2024-02-15T10:02:32;6.15;;;2.63;;
3415;SDS011;1721;51.238;9.562;2024-02-15T10:04:58;6.40;;;2.90;;
3415;SDS011;1721;51.238;9.562;2024-02-15T10:07:24;6.40;;;2.90;;
3415;SDS011;1721;51.238;9.562;2024-02-15T10:09:51;8.32;;;2.65;;
3415;SDS011;1721;51.238;9.562;2024-02-15T10:12:17;9.07;;;2.30;;
3415;SDS011;1721;51.238;9.562;2024-02-15T10:14:48;9.48;;;3.17;;
3415;SDS011;1721;51.238;9.562;2024-02-15T10:17:15;10.00;;;3.05;;
3415;SDS011;1721;51.238;9.562;2024-02-15T10:19:42;8.88;;;2.58;;
3415;SDS011;1721;51.238;9.562;2024-02-15T10:22:09;6.78;;;2.35;;
3415;SDS011;1721;51.238;9.562;2024-02-15T10:24:37;8.52;;;2.78;;
3415;SDS011;1721;51.238;9.562;2024-02-15T10:27:04;10.18;;;3.38;;
3415;SDS011;1721;51.238;9.562;2024-02-15T10:29:32;9.00;;;2.78;;
3415;SDS011;1721;51.238;9.562;2024-02-15T10:31:59;7.32;;;2.40;;
3415;SDS011;1721;51.238;9.562;2024-02-15T10:34:26;5.05;;;2.45;;
3415;SDS011;1721;51.238;9.562;2024-02-15T10:36:56;6.93;;;2.30;;
3415;SDS011;1721;51.238;9.562;2024-02-15T10:39:38;8.10;;;2.80;;
3415;SDS011;1721;51.238;9.562;2024-02-15T10:42:08;6.43;;;2.70;;
3415;SDS011;1721;51.238;9.562;2024-02-15T10:44:37;5.80;;;2.30;;
3415;SDS011;1721;51.238;9.562;2024-02-15T10:47:06;6.05;;;2.35;;
3415;SDS011;1721;51.238;9.562;2024-02-15T10:49:34;7.70;;;2.30;;
3415;SDS011;1721;51.238;9.562;2024-02-15T10:52:03;7.10;;;2.92;;
3415;SDS011;1721;51.238;9.562;2024-02-15T10:57:12;6.88;;;2.95;;
3415;SDS011;1721;51.238;9.562;2024-02-15T10:59:43;12.68;;;2.80;;
3415;SDS011;1721;51.238;9.562;2024-02-15T11:02:29;7.53;;;2.58;;
3415;SDS011;1721;51.238;9.562;2024-02-15T11:05:05;10.02;;;3.33;;
3415;SDS011;1721;51.238;9.562;2024-02-15T11:07:35;5.90;;;2.72;;
3415;SDS011;1721;51.238;9.562;2024-02-15T11:10:02;8.55;;;2.83;;
3415;SDS011;1721;51.238;9.562;2024-02-15T11:12:33;6.43;;;2.30;;
3415;SDS011;1721;51.238;9.562;2024-02-15T11:14:59;7.55;;;2.70;;
3415;SDS011;1721;51.238;9.562;2024-02-15T11:20:05;6.68;;;1.80;;
3415;SDS011;1721;51.238;9.562;2024-02-15T11:22:36;6.28;;;3.13;;
3415;SDS011;1721;51.238;9.562;2024-02-15T11:25:02;6.07;;;2.47;;
3415;SDS011;1721;51.238;9.562;2024-02-15T11:27:55;6.55;;;3.28;;
3415;SDS011;1721;51.238;9.562;2024-02-15T11:30:31;6.07;;;2.40;;
3415;SDS011;1721;51.238;9.562;2024-02-15T11:32:57;11.68;;;4.53;;
3415;SDS011;1721;51.238;9.562;2024-02-15T11:35:26;8.20;;;2.10;;
3415;SDS011;1721;51.238;9.562;2024-02-15T11:37:56;6.90;;;2.38;;
3415;SDS011;1721;51.238;9.562;2024-02-15T11:43:09;11.07;;;2.80;;
3415;SDS011;1721;51.238;9.562;2024-02-15T11:45:36;18.27;;;3.40;;
3415;SDS011;1721;51.238;9.562;2024-02-15T11:48:09;7.28;;;2.53;;
3415;SDS011;1721;51.238;9.562;2024-02-15T11:50:39;3.97;;;1.88;;
3415;SDS011;1721;51.238;9.562;2024-02-15T11:53:05;9.93;;;2.53;;
3415;SDS011;1721;51.238;9.562;2024-02-15T11:55:35;6.95;;;3.30;;
3415;SDS011;1721;51.238;9.562;2024-02-15T11:58:03;7.00;;;2.97;;
3415;SDS011;1721;51.238;9.562;2024-02-15T12:00:41;5.47;;;2.60;;
3415;SDS011;1721;51.238;9.562;2024-02-15T12:03:26;11.27;;;3.40;;
3415;SDS011;1721;51.238;9.562;2024-02-15T12:06:10;5.60;;;2.35;;
3415;SDS011;1721;51.238;9.562;2024-02-15T12:08:54;7.15;;;2.38;;
3415;SDS011;1721;51.238;9.562;2024-02-15T12:11:39;4.40;;;2.20;;
3415;SDS011;1721;51.238;9.562;2024-02-15T12:14:24;5.90;;;2.33;;
3415;SDS011;1721;51.238;9.562;2024-02-15T12:17:12;5.82;;;2.22;;
3415;SDS011;1721;51.238;9.562;2024-02-15T12:19:59;4.78;;;2.15;;
3415;SDS011;1721;51.238;9.562;2024-02-15T12:22:32;6.50;;;2.40;;
3415;SDS011;1721;51.238;9.562;2024-02-15T12:25:03;6.47;;;2.67;;
3415;SDS011;1721;51.238;9.562;2024-02-15T12:27:38;4.80;;;2.83;;
3415;SDS011;1721;51.238;9.562;2024-02-15T12:30:05;6.15;;;2.30;;
3415;SDS011;1721;51.238;9.562;2024-02-15T12:32:32;6.05;;;2.58;;
3415;SDS011;1721;51.238;9.562;2024-02-15T12:35:10;4.77;;;2.40;;
3415;SDS011;1721;51.238;9.562;2024-02-15T12:37:48;7.28;;;2.65;;
3415;SDS011;1721;51.238;9.562;2024-02-15T12:40:32;6.80;;;2.30;;
3415;SDS011;1721;51.238;9.562;2024-02-15T12:43:05;5.05;;;2.53;;
3415;SDS011;1721;51.238;9.562;2024-02-15T12:45:33;6.63;;;2.40;;
3415;SDS011;1721;51.238;9.562;2024-02-15T12:48:02;9.02;;;2.50;;
3415;SDS011;1721;51.238;9.562;2024-02-15T12:50:29;4.47;;;1.70;;
3415;SDS011;1721;51.238;9.562;2024-02-15T12:52:56;5.50;;;2.05;;
3415;SDS011;1721;51.238;9.562;2024-02-15T12:55:33;4.60;;;2.20;;
3415;SDS011;1721;51.238;9.562;2024-02-15T12:58:03;3.85;;;1.90;;
3415;SDS011;1721;51.238;9.562;2024-02-15T13:00:33;9.13;;;2.15;;
3415;SDS011;1721;51.238;9.562;2024-02-15T13:03:04;7.13;;;2.30;;
3415;SDS011;1721;51.238;9.562;2024-02-15T13:05:33;3.90;;;1.60;;
3415;SDS011;1721;51.238;9.562;2024-02-15T13:07:59;20.23;;;2.87;;
3415;SDS011;1721;51.238;9.562;2024-02-15T13:10:29;8.20;;;1.60;;
3415;SDS011;1721;51.238;9.562;2024-02-15T13:12:56;3.40;;;1.40;;
3415;SDS011;1721;51.238;9.562;2024-02-15T13:15:22;9.68;;;1.90;;
3415;SDS011;1721;51.238;9.562;2024-02-15T13:17:52;4.80;;;1.87;;
3415;SDS011;1721;51.238;9.562;2024-02-15T13:20:20;3.87;;;1.50;;
3415;SDS011;1721;51.238;9.562;2024-02-15T13:22:55;4.23;;;2.10;;
3415;SDS011;1721;51.238;9.562;2024-02-15T13:25:25;9.55;;;2.00;;
3415;SDS011;1721;51.238;9.562;2024-02-15T13:27:50;6.47;;;1.90;;
3415;SDS011;1721;51.238;9.562;2024-02-15T13:30:16;3.63;;;1.47;;
3415;SDS011;1721;51.238;9.562;2024-02-15T13:32:48;13.75;;;1.85;;
3415;SDS011;1721;51.238;9.562;2024-02-15T13:35:16;27.08;;;9.80;;
3415;SDS011;1721;51.238;9.562;2024-02-15T13:37:48;15.95;;;2.30;;
3415;SDS011;1721;51.238;9.562;2024-02-15T13:40:26;5.63;;;1.50;;
3415;SDS011;1721;51.238;9.562;2024-02-15T13:42:55;3.75;;;1.65;;
3415;SDS011;1721;51.238;9.562;2024-02-15T13:45:30;3.20;;;1.30;;
3415;SDS011;1721;51.238;9.562;2024-02-15T13:48:02;4.25;;;1.50;;
3415;SDS011;1721;51.238;9.562;2024-02-15T13:50:29;5.55;;;1.88;;
3415;SDS011;1721;51.238;9.562;2024-02-15T13:52:55;4.23;;;1.40;;
3415;SDS011;1721;51.238;9.562;2024-02-15T13:55:22;9.10;;;1.67;;
3415;SDS011;1721;51.238;9.562;2024-02-15T13:57:50;5.03;;;1.67;;
3415;SDS011;1721;51.238;9.562;2024-02-15T14:00:17;3.55;;;1.30;;
3415;SDS011;1721;51.238;9.562;2024-02-15T14:02:55;3.72;;;1.20;;
3415;SDS011;1721;51.238;9.562;2024-02-15T14:05:23;3.72;;;1.00;;
3415;SDS011;1721;51.238;9.562;2024-02-15T14:07:54;4.75;;;1.40;;
3415;SDS011;1721;51.238;9.562;2024-02-15T14:10:21;3.55;;;1.40;;
3415;SDS011;1721;51.238;9.562;2024-02-15T14:12:48;7.50;;;1.30;;
3415;SDS011;1721;51.238;9.562;2024-02-15T14:15:15;6.43;;;1.30;;
3415;SDS011;1721;51.238;9.562;2024-02-15T14:17:42;5.60;;;1.63;;
3415;SDS011;1721;51.238;9.562;2024-02-15T14:20:09;4.28;;;1.45;;
3415;SDS011;1721;51.238;9.562;2024-02-15T14:22:46;4.88;;;1.52;;
3415;SDS011;1721;51.238;9.562;2024-02-15T14:25:20;8.25;;;1.83;;
3415;SDS011;1721;51.238;9.562;2024-02-15T14:27:46;4.38;;;1.13;;
3415;SDS011;1721;51.238;9.562;2024-02-15T14:30:13;3.28;;;1.13;;
3415;SDS011;1721;51.238;9.562;2024-02-15T14:32:57;12.77;;;1.20;;
3415;SDS011;1721;51.238;9.562;2024-02-15T14:35:27;3.50;;;0.88;;
3415;SDS011;1721;51.238;9.562;2024-02-15T14:37:57;3.40;;;1.00;;
3415;SDS011;1721;51.238;9.562;2024-02-15T14:40:23;11.20;;;1.10;;
3415;SDS011;1721;51.238;9.562;2024-02-15T14:42:49;2.70;;;1.10;;
3415;SDS011;1721;51.238;9.562;2024-02-15T14:45:14;5.43;;;1.57;;
3415;SDS011;1721;51.238;9.562;2024-02-15T14:47:40;3.90;;;1.00;;
3415;SDS011;1721;51.238;9.562;2024-02-15T14:50:07;2.83;;;0.90;;
3415;SDS011;1721;51.238;9.562;2024-02-15T14:52:36;4.15;;;1.02;;
3415;SDS011;1721;51.238;9.562;2024-02-15T14:55:02;2.88;;;1.10;;
3415;SDS011;1721;51.238;9.562;2024-02-15T14:57:30;4.35;;;1.05;;
3415;SDS011;1721;51.238;9.562;2024-02-15T14:59:57;5.55;;;1.02;;
3415;SDS011;1721;51.238;9.562;2024-02-15T15:02:24;5.00;;;1.20;;
3415;SDS011;1721;51.238;9.562;2024-02-15T15:04:49;3.00;;;0.97;;
3415;SDS011;1721;51.238;9.562;2024-02-15T15:07:34;10.27;;;1.10;;
3415;SDS011;1721;51.238;9.562;2024-02-15T15:10:18;2.80;;;0.90;;
3415;SDS011;1721;51.238;9.562;2024-02-15T15:13:02;2.28;;;0.70;;
3415;SDS011;1721;51.238;9.562;2024-02-15T15:15:28;7.60;;;0.90;;
3415;SDS011;1721;51.238;9.562;2024-02-15T15:17:54;5.03;;;1.50;;
3415;SDS011;1721;51.238;9.562;2024-02-15T15:20:20;7.30;;;1.40;;
3415;SDS011;1721;51.238;9.562;2024-02-15T15:22:46;3.30;;;0.80;;
3415;SDS011;1721;51.238;9.562;2024-02-15T15:25:12;2.70;;;1.00;;
3415;SDS011;1721;51.238;9.562;2024-02-15T15:27:37;4.00;;;0.93;;
3415;SDS011;1721;51.238;9.562;2024-02-15T15:30:05;2.35;;;0.73;;